Time;durP1;ratioP1;P1;durP2;ratioP2;P2;SDS_P1;SDS_P2;PMS_P1;PMS_P2;Temp;Humidity;BMP_temperature;BMP_pressure;BME280_temperature;BME280_humidity;BME280_pressure;Samples;Min_cycle;Max_cycle;Signal;HPM_P1;HPM_P2
2023/12/31 00:01:43;;;;;;;6.50;1.90;;;;;;;9.49;78.31;98908.31;5050788;28;20393;-74
2023/12/31 00:04:10;;;;;;;5.35;1.80;;;;;;;9.51;78.49;98902.03;5050608;28;20086;-75
2023/12/31 00:06:36;;;;;;;2.45;1.33;;;;;;;9.54;78.70;98902.75;5050804;28;20092;-76
2023/12/31 00:09:03;;;;;;;3.15;1.70;;;;;;;9.56;78.94;98898.22;5050668;28;20111;-76
2023/12/31 00:11:29;;;;;;;4.13;1.65;;;;;;;9.59;79.02;98891.00;5050384;28;20049;-75
2023/12/31 00:13:56;;;;;;;4.57;1.38;;;;;;;9.63;78.69;98886.38;5050648;28;20091;-74
2023/12/31 00:16:23;;;;;;;4.40;1.88;;;;;;;9.67;78.85;98887.00;5050886;28;20072;-75
2023/12/31 00:18:49;;;;;;;1.90;1.10;;;;;;;9.68;78.48;98884.28;5050212;28;20061;-77
2023/12/31 00:21:16;;;;;;;3.50;1.40;;;;;;;9.72;78.58;98870.00;5050212;28;20484;-75
2023/12/31 00:23:43;;;;;;;3.88;1.30;;;;;;;9.75;78.27;98872.41;5050714;28;20110;-74
2023/12/31 00:26:09;;;;;;;3.10;1.30;;;;;;;9.79;77.90;98870.41;5050103;28;20053;-74
2023/12/31 00:28:36;;;;;;;4.13;1.50;;;;;;;9.79;77.72;98873.03;5050372;28;20569;-75
2023/12/31 00:31:02;;;;;;;3.67;1.20;;;;;;;9.79;77.60;98867.78;5050043;28;20040;-74
2023/12/31 00:33:29;;;;;;;2.05;1.20;;;;;;;9.76;77.91;98857.50;5050247;28;20098;-75
2023/12/31 00:35:56;;;;;;;3.80;1.20;;;;;;;9.76;78.23;98853.06;5049383;28;20063;-75
2023/12/31 00:38:22;;;;;;;1.60;1.20;;;;;;;9.80;78.54;98860.75;5049125;28;20591;-76
2023/12/31 00:40:49;;;;;;;3.33;1.05;;;;;;;9.81;78.68;98833.50;5049895;28;20463;-74
2023/12/31 00:43:15;;;;;;;3.63;1.30;;;;;;;9.83;78.99;98835.09;5050528;28;20445;-76
2023/12/31 00:45:42;;;;;;;6.32;1.20;;;;;;;9.88;79.02;98832.16;5049132;28;20052;-75
2023/12/31 00:48:08;;;;;;;4.57;1.00;;;;;;;9.92;79.09;98823.09;5050754;28;20061;-75
2023/12/31 00:50:37;;;;;;;4.25;1.13;;;;;;;9.94;79.12;98810.69;5050106;28;20068;-76
2023/12/31 00:53:03;;;;;;;2.40;1.20;;;;;;;10.00;79.18;98806.78;5049985;28;20110;-75
2023/12/31 00:55:30;;;;;;;1.38;0.95;;;;;;;10.04;79.05;98800.38;5050387;28;20049;-75
2023/12/31 00:57:57;;;;;;;1.80;1.17;;;;;;;10.07;78.74;98791.41;5049972;28;20534;-75
2023/12/31 01:00:24;;;;;;;1.88;0.85;;;;;;;10.10;78.86;98786.78;5049990;28;20053;-74
2023/12/31 01:02:50;;;;;;;1.38;0.90;;;;;;;10.12;78.49;98784.91;5050022;28;20060;-74
2023/12/31 01:05:17;;;;;;;1.88;0.90;;;;;;;10.14;78.03;98784.78;5050123;28;20049;-75
2023/12/31 01:07:44;;;;;;;1.27;0.90;;;;;;;10.13;78.39;98783.94;5048846;28;20048;-75
2023/12/31 01:10:11;;;;;;;1.95;0.93;;;;;;;10.14;78.10;98785.63;5049801;28;20151;-76
2023/12/31 01:12:38;;;;;;;2.85;0.90;;;;;;;10.14;78.28;98776.91;5050075;28;20555;-75
2023/12/31 01:15:05;;;;;;;2.08;0.80;;;;;;;10.16;78.29;98777.63;5049944;28;20714;-76
2023/12/31 01:17:31;;;;;;;2.55;1.00;;;;;;;10.16;78.05;98775.84;5049948;28;20705;-76
2023/12/31 01:19:58;;;;;;;1.45;0.70;;;;;;;10.15;78.06;98765.44;5048606;28;20044;-75
2023/12/31 01:22:25;;;;;;;1.63;0.93;;;;;;;10.15;78.04;98768.91;5050145;28;20049;-76
2023/12/31 01:24:51;;;;;;;1.30;0.70;;;;;;;10.14;78.06;98761.13;5050097;28;20088;-75
2023/12/31 01:27:18;;;;;;;1.42;0.75;;;;;;;10.13;77.80;98754.19;5050082;28;20049;-75
2023/12/31 01:29:44;;;;;;;2.42;1.15;;;;;;;10.11;77.79;98756.94;5049441;28;20049;-74
2023/12/31 01:32:11;;;;;;;1.88;0.95;;;;;;;10.10;77.65;98755.22;5048644;28;20049;-73
2023/12/31 01:34:38;;;;;;;1.85;0.90;;;;;;;10.07;77.99;98747.56;5048832;28;20045;-75
2023/12/31 01:37:06;;;;;;;2.78;0.90;;;;;;;10.06;77.72;98750.31;5050553;28;20048;-76
2023/12/31 01:39:32;;;;;;;1.33;0.93;;;;;;;10.04;77.88;98742.53;5053066;28;20072;-75
2023/12/31 01:41:59;;;;;;;2.80;1.17;;;;;;;10.02;77.79;98742.63;5053370;28;20054;-75
2023/12/31 01:44:27;;;;;;;2.53;0.98;;;;;;;10.01;78.05;98732.22;5053253;28;20049;-75
2023/12/31 01:46:54;;;;;;;2.40;0.98;;;;;;;9.99;78.00;98737.59;5053321;28;20051;-75
2023/12/31 01:49:21;;;;;;;1.25;0.70;;;;;;;9.98;77.88;98725.41;5052821;28;20056;-75
2023/12/31 01:51:49;;;;;;;2.15;1.20;;;;;;;9.98;78.01;98724.56;5053411;28;20106;-74
2023/12/31 01:54:17;;;;;;;1.60;0.80;;;;;;;9.96;77.75;98727.31;5053218;28;20049;-75
2023/12/31 01:56:44;;;;;;;2.03;0.93;;;;;;;9.96;78.00;98718.56;5053267;28;20041;-74
2023/12/31 01:59:11;;;;;;;1.67;1.05;;;;;;;9.95;77.97;98724.78;5052497;28;20460;-75
2023/12/31 02:01:38;;;;;;;1.77;1.00;;;;;;;9.94;78.10;98723.13;5033159;28;20494;-75
2023/12/31 02:04:06;;;;;;;1.63;1.20;;;;;;;9.94;77.96;98721.31;5033103;28;20056;-76
2023/12/31 02:06:33;;;;;;;1.75;1.08;;;;;;;9.93;78.15;98711.75;5032950;28;20160;-76
2023/12/31 02:08:59;;;;;;;2.15;1.13;;;;;;;9.92;78.22;98710.06;5032869;28;20045;-74
2023/12/31 02:11:26;;;;;;;1.50;1.17;;;;;;;9.93;78.30;98710.91;5052102;28;20113;-75
2023/12/31 02:13:52;;;;;;;1.60;1.20;;;;;;;9.93;78.52;98710.91;5053000;28;20149;-75
2023/12/31 02:16:19;;;;;;;3.63;1.30;;;;;;;9.92;78.59;98707.44;5052688;28;20143;-75
2023/12/31 02:18:45;;;;;;;2.08;1.13;;;;;;;9.93;78.76;98700.38;5052542;28;20084;-75
2023/12/31 02:21:13;;;;;;;2.65;1.40;;;;;;;9.93;78.52;98695.97;5052443;28;20055;-75
2023/12/31 02:23:40;;;;;;;3.17;1.25;;;;;;;9.93;78.56;98693.34;5051678;28;20049;-75
2023/12/31 02:26:09;;;;;;;1.95;1.10;;;;;;;9.93;78.44;98690.72;5052342;28;20056;-77
2023/12/31 02:28:37;;;;;;;3.58;1.30;;;;;;;9.94;78.35;98702.91;5052441;28;20049;-75
2023/12/31 02:31:04;;;;;;;3.05;1.60;;;;;;;9.94;78.40;98681.88;5052351;28;20533;-75
2023/12/31 02:33:34;;;;;;;7.32;1.90;;;;;;;9.94;78.21;98684.50;5052224;28;20094;-74
2023/12/31 02:36:02;;;;;;;4.63;1.45;;;;;;;9.94;78.35;98679.25;5052578;28;20135;-75
2023/12/31 02:38:29;;;;;;;2.58;1.50;;;;;;;9.94;78.33;98676.63;5051707;28;20049;-75
2023/12/31 02:40:55;;;;;;;2.45;1.50;;;;;;;9.94;78.26;98678.44;5052455;28;20053;-75
2023/12/31 02:43:22;;;;;;;3.50;1.50;;;;;;;9.93;78.11;98661.81;5052240;28;20057;-74
2023/12/31 02:45:49;;;;;;;2.40;1.67;;;;;;;9.92;77.96;98654.88;5052553;28;20143;-75
2023/12/31 02:48:15;;;;;;;2.53;1.58;;;;;;;9.90;78.14;98654.97;5051372;28;20132;-75
2023/12/31 02:50:42;;;;;;;4.28;1.70;;;;;;;9.89;78.05;98642.78;5051792;28;20094;-74
2023/12/31 02:53:09;;;;;;;2.97;2.03;;;;;;;9.88;78.19;98638.47;5052290;28;20057;-75
2023/12/31 02:55:35;;;;;;;4.72;1.67;;;;;;;9.86;78.19;98632.50;5052047;28;20535;-75
2023/12/31 02:58:02;;;;;;;3.95;1.73;;;;;;;9.86;78.24;98629.00;5051938;28;20343;-74
2023/12/31 03:00:29;;;;;;;1.60;1.50;;;;;;;9.84;78.33;98636.19;5051597;28;20091;-76
2023/12/31 03:02:56;;;;;;;2.63;1.77;;;;;;;9.84;78.35;98623.91;5051765;28;20049;-74
2023/12/31 03:05:22;;;;;;;2.50;1.70;;;;;;;9.82;78.24;98607.38;5050651;28;20041;-74
2023/12/31 03:07:49;;;;;;;2.42;1.75;;;;;;;9.82;78.16;98609.16;5051495;28;20776;-76
2023/12/31 03:10:16;;;;;;;3.47;2.00;;;;;;;9.81;78.11;98610.13;5051898;28;20222;-74
2023/12/31 03:12:42;;;;;;;5.35;2.33;;;;;;;9.80;77.99;98603.19;5051790;28;20061;-73
2023/12/31 03:15:10;;;;;;;3.97;1.80;;;;;;;9.78;78.09;98598.88;5051510;28;20485;-75
2023/12/31 03:17:36;;;;;;;2.20;1.80;;;;;;;9.77;78.17;98597.19;5050758;28;20053;-75
2023/12/31 03:20:04;;;;;;;3.05;2.20;;;;;;;9.74;78.19;98594.81;5051074;28;20049;-75
2023/12/31 03:22:31;;;;;;;2.65;1.95;;;;;;;9.75;78.63;98585.09;5051723;28;20095;-76
2023/12/31 03:25:08;;;;;;;4.28;1.98;;;;;;;9.76;78.22;98589.44;5050436;28;20056;-75
2023/12/31 03:27:35;;;;;;;3.67;2.17;;;;;;;9.76;78.65;98581.56;5050238;28;20049;-75
2023/12/31 03:30:02;;;;;;;3.72;1.70;;;;;;;9.76;78.49;98585.00;5050743;28;20055;-76
2023/12/31 03:32:29;;;;;;;2.88;2.03;;;;;;;9.75;78.50;98575.44;5051260;28;20055;-74
2023/12/31 03:34:55;;;;;;;2.50;1.95;;;;;;;9.75;78.61;98577.22;5051656;28;20053;-74
2023/12/31 03:37:22;;;;;;;2.20;1.90;;;;;;;9.74;78.56;98565.91;5051167;28;20463;-75
2023/12/31 03:39:51;;;;;;;7.25;2.10;;;;;;;9.76;78.62;98557.91;5051131;28;20131;-74
2023/12/31 03:42:18;;;;;;;2.60;1.92;;;;;;;9.75;78.63;98564.94;5051242;28;20067;-73
2023/12/31 03:44:45;;;;;;;2.05;1.77;;;;;;;9.76;78.39;98555.28;5051395;28;20056;-75
2023/12/31 03:47:11;;;;;;;4.45;2.20;;;;;;;9.76;78.31;98552.66;5050983;28;20072;-75
2023/12/31 03:49:38;;;;;;;2.10;1.83;;;;;;;9.75;78.31;98551.81;5050757;28;20045;-75
2023/12/31 03:52:06;;;;;;;2.80;1.98;;;;;;;9.74;78.46;98550.13;5050812;28;20048;-75
2023/12/31 03:54:32;;;;;;;2.50;2.00;;;;;;;9.73;78.61;98535.31;5051124;28;20371;-77
2023/12/31 03:56:59;;;;;;;4.18;2.10;;;;;;;9.74;78.66;98539.63;5049767;28;20041;-75
2023/12/31 03:59:26;;;;;;;2.47;1.90;;;;;;;9.75;78.75;98538.66;5050393;28;20049;-75
2023/12/31 04:01:56;;;;;;;3.75;1.95;;;;;;;9.76;78.59;98540.34;5050102;28;20187;-76
2023/12/31 04:04:25;;;;;;;3.22;2.10;;;;;;;9.78;78.71;98542.84;5051040;28;20488;-75
2023/12/31 04:06:52;;;;;;;2.55;1.70;;;;;;;9.79;78.62;98539.25;5050900;28;20048;-75
2023/12/31 04:09:18;;;;;;;2.22;1.75;;;;;;;9.80;78.71;98533.06;5050690;28;20053;-76
2023/12/31 04:11:45;;;;;;;3.10;1.80;;;;;;;9.80;78.37;98525.19;5050123;28;20049;-75
2023/12/31 04:14:12;;;;;;;2.78;2.08;;;;;;;9.81;78.24;98520.75;5050372;28;20053;-73
2023/12/31 04:16:38;;;;;;;3.70;1.90;;;;;;;9.80;78.08;98506.81;5051020;28;20139;-75
2023/12/31 04:19:05;;;;;;;2.05;1.70;;;;;;;9.80;78.14;98513.84;5050532;28;20473;-76
2023/12/31 04:21:32;;;;;;;1.95;1.70;;;;;;;9.78;78.29;98501.66;5050277;28;20161;-75
2023/12/31 04:23:58;;;;;;;3.15;1.77;;;;;;;9.77;78.15;98494.69;5050793;28;20111;-75
2023/12/31 04:26:25;;;;;;;3.28;1.77;;;;;;;9.78;78.20;98500.81;5050379;28;20053;-75
2023/12/31 04:28:51;;;;;;;4.35;2.10;;;;;;;9.76;77.88;98487.78;5050077;28;20556;-75
2023/12/31 04:31:18;;;;;;;2.85;1.80;;;;;;;9.77;78.02;98488.63;5050721;28;20056;-75
2023/12/31 04:33:44;;;;;;;5.00;2.00;;;;;;;9.75;78.13;98478.22;5049421;28;20045;-76
2023/12/31 04:36:11;;;;;;;2.80;1.90;;;;;;;9.75;77.87;98480.00;5050043;28;20647;-74
2023/12/31 04:38:38;;;;;;;4.15;2.15;;;;;;;9.73;78.14;98467.00;5050127;28;20456;-76
2023/12/31 04:41:05;;;;;;;2.22;1.63;;;;;;;9.73;78.02;98464.38;5050521;28;20049;-75
2023/12/31 04:43:33;;;;;;;3.05;1.60;;;;;;;9.73;77.91;98458.28;5049054;28;20402;-75
2023/12/31 04:46:04;;;;;;;4.05;1.70;;;;;;;9.70;77.19;98453.22;5050395;28;20099;-75
2023/12/31 04:48:30;;;;;;;2.28;1.67;;;;;;;9.70;78.02;98451.44;5050300;28;20487;-74
2023/12/31 04:50:57;;;;;;;5.53;1.70;;;;;;;9.71;78.22;98445.25;5049227;28;20490;-75
2023/12/31 04:53:23;;;;;;;1.90;1.42;;;;;;;9.71;78.32;98447.88;5049039;28;20080;-74
2023/12/31 04:55:50;;;;;;;2.20;1.70;;;;;;;9.71;78.47;98429.47;5048943;28;20041;-75
2023/12/31 04:58:17;;;;;;;3.88;2.05;;;;;;;9.72;78.40;98430.31;5049976;28;20486;-75
2023/12/31 05:00:45;;;;;;;2.55;1.77;;;;;;;9.72;78.23;98436.41;5050518;28;20595;-75
2023/12/31 05:03:12;;;;;;;4.82;2.75;;;;;;;9.72;78.23;98430.31;5050157;28;20485;-74
2023/12/31 05:05:39;;;;;;;2.20;1.60;;;;;;;9.73;78.48;98419.69;5050348;28;20056;-75
2023/12/31 05:08:05;;;;;;;3.38;1.70;;;;;;;9.74;78.25;98416.13;5049869;28;20049;-76
2023/12/31 05:10:32;;;;;;;2.78;1.63;;;;;;;9.74;78.46;98421.38;5050115;28;20064;-76
2023/12/31 05:12:59;;;;;;;4.78;1.70;;;;;;;9.76;78.55;98408.94;5053690;28;20055;-75
2023/12/31 05:17:53;;;;;;;2.67;1.85;;;;;;;9.80;78.63;98392.94;5019259;28;20550;-76
2023/12/31 05:20:20;;;;;;;3.00;1.60;;;;;;;9.81;78.48;98381.47;5033806;28;20049;-77
2023/12/31 05:22:46;;;;;;;2.70;1.88;;;;;;;9.82;78.47;98383.97;5033761;28;20076;-77
2023/12/31 05:25:13;;;;;;;1.92;1.50;;;;;;;9.84;78.49;98370.72;5033919;28;20061;-76
2023/12/31 05:27:40;;;;;;;4.90;1.90;;;;;;;9.84;78.40;98368.97;5014431;28;20046;-77
2023/12/31 05:30:07;;;;;;;2.47;1.48;;;;;;;9.86;78.32;98358.28;5032880;28;20567;-78
2023/12/31 05:32:33;;;;;;;3.38;1.80;;;;;;;9.87;78.33;98354.75;5016311;28;20050;-76
2023/12/31 05:35:00;;;;;;;2.30;1.63;;;;;;;9.87;78.24;98352.13;5033901;28;20053;-76
2023/12/31 05:37:27;;;;;;;3.78;1.60;;;;;;;9.88;78.37;98338.00;5033306;28;20144;-79
2023/12/31 05:39:53;;;;;;;2.72;1.40;;;;;;;9.89;78.19;98334.41;5016217;28;20406;-78
2023/12/31 05:42:20;;;;;;;1.92;1.63;;;;;;;9.90;78.15;98331.69;5013698;28;20054;-76
2023/12/31 05:44:46;;;;;;;1.73;1.63;;;;;;;9.90;77.92;98325.56;5013825;28;20133;-76
2023/12/31 05:47:13;;;;;;;2.42;1.73;;;;;;;9.91;78.25;98320.19;4996034;28;20111;-76
2023/12/31 05:49:39;;;;;;;2.28;1.70;;;;;;;9.93;78.34;98303.47;5025004;28;20045;-77
2023/12/31 05:52:07;;;;;;;2.63;1.58;;;;;;;9.94;78.25;98297.28;5033152;28;20060;-77
2023/12/31 05:54:37;;;;;;;3.60;1.48;;;;;;;9.95;77.92;98291.06;5033475;28;20049;-76
2023/12/31 05:57:04;;;;;;;1.83;1.50;;;;;;;9.96;78.41;98288.31;5033294;28;20053;-78
2023/12/31 05:59:31;;;;;;;3.42;1.50;;;;;;;9.99;78.50;98280.16;5025139;28;20045;-77
2023/12/31 06:01:57;;;;;;;3.15;1.80;;;;;;;10.01;78.57;98282.69;5013435;28;20475;-76
2023/12/31 06:04:24;;;;;;;3.30;1.90;;;;;;;10.03;78.44;98278.16;5013317;28;20082;-77
2023/12/31 06:06:50;;;;;;;2.80;1.60;;;;;;;10.04;78.51;98272.78;5013137;28;20054;-77
2023/12/31 06:09:17;;;;;;;2.85;1.58;;;;;;;10.08;78.32;98272.50;4998722;28;20069;-76
2023/12/31 06:11:43;;;;;;;2.90;1.60;;;;;;;10.11;78.28;98269.66;5032814;28;20053;-76
2023/12/31 06:14:10;;;;;;;3.42;1.27;;;;;;;10.12;78.22;98253.75;5032807;28;20475;-76
2023/12/31 06:16:36;;;;;;;1.92;1.40;;;;;;;10.15;78.03;98257.94;5032932;28;20046;-75
2023/12/31 06:19:03;;;;;;;2.58;1.50;;;;;;;10.17;78.26;98258.66;5032448;28;20064;-78
2023/12/31 06:21:30;;;;;;;3.13;2.00;;;;;;;10.17;77.96;98256.84;5013877;28;20477;-76
2023/12/31 06:23:57;;;;;;;5.82;1.70;;;;;;;10.19;78.08;98256.72;5012079;28;20483;-76
2023/12/31 06:26:23;;;;;;;1.83;1.50;;;;;;;10.20;77.88;98247.88;4995211;28;20056;-76
2023/12/31 06:28:50;;;;;;;2.38;1.70;;;;;;;10.21;77.71;98241.66;5012657;28;20061;-78
2023/12/31 06:31:16;;;;;;;2.47;1.60;;;;;;;10.21;77.61;98233.75;5026011;28;20060;-77
2023/12/31 06:33:43;;;;;;;1.65;1.55;;;;;;;10.21;77.54;98239.03;5014781;28;20085;-76
2023/12/31 06:36:10;;;;;;;2.80;1.45;;;;;;;10.22;77.68;98258.28;4997327;28;20070;-77
2023/12/31 06:38:37;;;;;;;2.42;1.63;;;;;;;10.21;77.67;98246.09;4975599;28;20128;-77
2023/12/31 06:41:08;;;;;;;4.22;1.90;;;;;;;10.19;76.47;98226.97;4986306;28;20100;-76
2023/12/31 06:43:35;;;;;;;3.60;1.98;;;;;;;10.21;77.35;98248.72;5012260;28;20088;-76
2023/12/31 06:46:05;;;;;;;2.50;2.00;;;;;;;10.18;76.45;98241.91;5012315;28;20081;-77
2023/12/31 06:48:31;;;;;;;4.18;2.00;;;;;;;10.19;77.47;98233.06;5011657;28;20053;-77
2023/12/31 06:50:58;;;;;;;3.40;2.00;;;;;;;10.20;77.51;98228.66;5000356;28;20414;-77
2023/12/31 06:53:24;;;;;;;3.75;2.00;;;;;;;10.20;77.47;98218.94;5031008;28;20777;-77
2023/12/31 06:55:51;;;;;;;3.08;1.85;;;;;;;10.21;77.44;98222.44;5031455;28;20061;-77
2023/12/31 06:58:17;;;;;;;3.42;2.00;;;;;;;10.22;77.48;98221.47;5013866;28;20151;-78
2023/12/31 07:00:44;;;;;;;2.25;1.90;;;;;;;10.23;77.60;98213.44;5011344;28;20045;-76
2023/12/31 07:03:11;;;;;;;3.42;2.10;;;;;;;10.24;77.59;98203.78;4993962;28;20050;-81
2023/12/31 07:05:37;;;;;;;3.30;2.13;;;;;;;10.25;77.45;98205.44;4994970;28;20050;-80
2023/12/31 07:08:04;;;;;;;2.38;1.90;;;;;;;10.26;77.56;98199.22;5012037;28;20053;-81
2023/12/31 07:10:30;;;;;;;2.25;1.80;;;;;;;10.27;77.04;98206.13;5012033;28;20430;-81
2023/12/31 07:12:57;;;;;;;3.53;2.10;;;;;;;10.27;77.30;98196.47;5010397;28;20506;-81
2023/12/31 07:15:23;;;;;;;2.72;2.15;;;;;;;10.28;77.09;98197.31;5031572;28;20057;-79
2023/12/31 07:17:50;;;;;;;2.97;2.20;;;;;;;10.28;77.28;98192.88;5031846;28;20049;-82
2023/12/31 07:20:17;;;;;;;3.13;2.35;;;;;;;10.29;77.30;98185.81;5031614;28;20049;-80
2023/12/31 07:22:43;;;;;;;2.78;2.10;;;;;;;10.28;76.95;98181.53;5022997;28;20049;-81
2023/12/31 07:25:10;;;;;;;3.03;2.40;;;;;;;10.28;77.10;98184.97;5012954;28;20084;-84
2023/12/31 07:27:36;;;;;;;4.57;2.67;;;;;;;10.28;77.00;98181.53;5011615;28;20049;-80
2023/12/31 07:30:04;;;;;;;2.78;2.40;;;;;;;10.28;77.16;98163.94;5011464;28;20093;-78
2023/12/31 07:32:30;;;;;;;3.53;2.45;;;;;;;10.29;77.17;98164.78;4994121;28;20111;-78
2023/12/31 07:34:57;;;;;;;3.78;2.20;;;;;;;10.30;77.26;98150.66;4994613;28;20144;-79
2023/12/31 07:37:23;;;;;;;2.38;2.10;;;;;;;10.31;77.17;98152.34;5026309;28;20100;-80
2023/12/31 07:39:50;;;;;;;3.13;2.28;;;;;;;10.31;76.95;98147.06;5031143;28;20482;-80
2023/12/31 07:42:16;;;;;;;2.72;2.20;;;;;;;10.31;76.82;98147.06;5030133;28;20120;-78
2023/12/31 07:44:43;;;;;;;4.97;2.55;;;;;;;10.32;76.80;98146.09;5030651;28;20132;-78
2023/12/31 07:47:09;;;;;;;3.85;2.13;;;;;;;10.32;76.89;98135.59;5031021;28;20494;-80
2023/12/31 07:49:36;;;;;;;5.68;2.40;;;;;;;10.33;76.80;98145.16;5031141;28;20103;-78
2023/12/31 07:52:03;;;;;;;3.15;2.47;;;;;;;10.33;76.78;98125.91;5013530;28;20064;-82
2023/12/31 07:54:29;;;;;;;3.15;2.50;;;;;;;10.32;76.99;98130.31;5015131;28;20085;-79
2023/12/31 07:56:56;;;;;;;3.67;2.58;;;;;;;10.34;77.29;98130.19;5011505;28;20050;-79
2023/12/31 07:59:23;;;;;;;3.30;2.60;;;;;;;10.34;77.03;98133.69;4993599;28;20498;-79
2023/12/31 08:01:49;;;;;;;4.55;2.50;;;;;;;10.36;76.90;98123.03;5010989;28;20549;-81
2023/12/31 08:04:17;;;;;;;4.25;2.42;;;;;;;10.37;76.98;98120.28;5019118;28;20078;-80
2023/12/31 08:06:44;;;;;;;3.55;2.30;;;;;;;10.38;77.10;98126.38;4993864;28;20097;-80
2023/12/31 08:09:11;;;;;;;2.92;2.33;;;;;;;10.40;77.22;98114.75;5011102;28;20419;-80
2023/12/31 08:11:38;;;;;;;3.05;2.58;;;;;;;10.41;77.04;98111.19;5010784;28;20091;-79
2023/12/31 08:14:04;;;;;;;3.33;2.22;;;;;;;10.42;77.23;98097.06;5018070;28;20077;-80
2023/12/31 08:16:31;;;;;;;3.50;2.40;;;;;;;10.45;77.10;98088.09;5030486;28;20073;-78
2023/12/31 08:18:57;;;;;;;3.38;2.80;;;;;;;10.47;77.09;98090.63;5030498;28;20111;-79
2023/12/31 08:21:24;;;;;;;3.42;2.50;;;;;;;10.49;76.85;98096.56;5030645;28;20077;-82
2023/12/31 08:23:51;;;;;;;6.05;2.80;;;;;;;10.50;76.84;98095.63;5027017;28;20053;-80
2023/12/31 08:26:17;;;;;;;4.00;2.53;;;;;;;10.51;76.83;98100.72;4993608;28;20490;-78
2023/12/31 08:28:44;;;;;;;4.50;2.55;;;;;;;10.53;76.80;98088.31;5010971;28;20050;-79
2023/12/31 08:31:14;;;;;;;4.75;2.72;;;;;;;10.54;76.15;98097.84;5011053;28;20053;-78
2023/12/31 08:33:42;;;;;;;4.03;2.67;;;;;;;10.57;77.10;98094.13;4993521;28;20088;-79
2023/12/31 08:36:08;;;;;;;5.72;2.85;;;;;;;10.60;76.83;98103.56;5028518;28;20049;-79
2023/12/31 08:38:35;;;;;;;4.28;2.83;;;;;;;10.62;76.78;98088.50;5030364;28;20041;-79
2023/12/31 08:41:02;;;;;;;5.85;2.65;;;;;;;10.64;76.68;98092.66;5012882;28;20061;-81
2023/12/31 08:43:28;;;;;;;3.88;2.38;;;;;;;10.66;76.76;98088.09;5030443;28;20053;-80
2023/12/31 08:45:55;;;;;;;3.83;2.75;;;;;;;10.68;76.72;98072.16;4998806;28;20442;-78
2023/12/31 08:48:21;;;;;;;3.47;2.55;;;;;;;10.70;76.75;98080.78;5014417;28;20141;-78
2023/12/31 08:50:49;;;;;;;4.50;2.33;;;;;;;10.73;76.94;98071.78;5014600;28;20434;-78
2023/12/31 08:53:15;;;;;;;3.78;2.80;;;;;;;10.75;76.61;98072.47;4997161;28;20046;-78
2023/12/31 08:55:42;;;;;;;3.22;2.60;;;;;;;10.77;76.65;98065.31;5023764;28;20128;-80
2023/12/31 08:58:08;;;;;;;3.00;2.33;;;;;;;10.79;76.48;98055.47;5034172;28;20485;-80
2023/12/31 09:00:35;;;;;;;4.22;2.67;;;;;;;10.81;76.49;98066.72;5034042;28;20103;-79
2023/12/31 09:03:01;;;;;;;3.47;2.38;;;;;;;10.84;76.44;98060.34;5034256;28;20100;-78
2023/12/31 09:05:28;;;;;;;2.65;2.20;;;;;;;10.82;76.05;98050.78;5011536;28;20046;-79
2023/12/31 09:07:55;;;;;;;4.35;2.80;;;;;;;10.85;76.27;98056.75;5014457;28;20052;-81
2023/12/31 09:10:21;;;;;;;6.40;2.42;;;;;;;10.86;76.11;98046.09;4997122;28;20054;-78
2023/12/31 09:12:48;;;;;;;4.30;2.67;;;;;;;10.86;76.31;98055.78;5014472;28;20045;-78
2023/12/31 09:15:14;;;;;;;3.75;2.42;;;;;;;10.87;76.33;98062.72;5014544;28;20136;-78
2023/12/31 09:17:41;;;;;;;3.05;2.53;;;;;;;10.88;76.44;98059.13;5015787;28;20486;-80
2023/12/31 09:20:08;;;;;;;3.10;2.45;;;;;;;10.89;76.33;98048.47;5033705;28;20053;-78
2023/12/31 09:22:35;;;;;;;3.25;2.47;;;;;;;10.92;76.50;98047.38;5033754;28;20061;-81
2023/12/31 09:25:05;;;;;;;3.58;2.38;;;;;;;10.92;75.99;98050.00;5016758;28;20052;-77
2023/12/31 09:27:32;;;;;;;4.03;3.08;;;;;;;10.94;76.20;98066.47;4999680;28;20085;-77
2023/12/31 09:29:59;;;;;;;3.58;2.70;;;;;;;10.94;76.18;98054.16;5014033;28;20041;-79
2023/12/31 09:32:25;;;;;;;6.28;2.63;;;;;;;10.98;76.32;98052.09;5013916;28;20072;-79
2023/12/31 09:34:52;;;;;;;3.30;2.38;;;;;;;10.99;76.10;98048.50;5014122;28;20497;-78
2023/12/31 09:37:19;;;;;;;3.33;2.47;;;;;;;11.00;76.09;98052.81;5014643;28;20049;-77
2023/12/31 09:39:47;;;;;;;3.20;2.35;;;;;;;11.03;76.21;98046.44;5013572;28;20156;-77
2023/12/31 09:42:18;;;;;;;3.60;2.20;;;;;;;11.03;75.69;98039.34;5013871;28;20088;-77
2023/12/31 09:44:46;;;;;;;2.58;2.15;;;;;;;11.08;75.82;98049.50;5014051;28;20054;-77
2023/12/31 09:47:14;;;;;;;5.97;2.45;;;;;;;11.08;75.93;98045.09;5013563;28;20463;-82
2023/12/31 09:49:41;;;;;;;3.05;2.28;;;;;;;11.10;76.00;98042.28;5019133;28;20053;-78
2023/12/31 09:52:08;;;;;;;2.50;2.30;;;;;;;11.13;75.82;98064.88;5032083;28;20144;-79
2023/12/31 09:54:41;;;;;;;3.20;2.20;;;;;;;11.14;75.52;98048.13;5033445;28;20140;-78
2023/12/31 09:57:08;;;;;;;3.25;2.55;;;;;;;11.17;76.04;98038.16;5029209;28;20058;-79
2023/12/31 09:59:41;;;;;;;2.97;2.28;;;;;;;11.18;75.70;98042.47;5014925;28;20050;-77
2023/12/31 10:02:17;;;;;;;4.28;2.45;;;;;;;11.17;74.47;98034.69;5013759;28;20057;-78
2023/12/31 10:04:44;;;;;;;3.38;2.40;;;;;;;11.20;75.69;98022.09;5013463;28;20089;-78
2023/12/31 10:07:12;;;;;;;4.80;1.98;;;;;;;11.23;75.70;98020.16;4997616;28;20058;-81
2023/12/31 10:09:42;;;;;;;3.42;2.50;;;;;;;11.23;74.76;98017.53;5015048;28;20049;-77
2023/12/31 10:12:09;;;;;;;3.97;2.20;;;;;;;11.25;75.48;98010.34;5015600;28;20049;-78
2023/12/31 10:14:35;;;;;;;2.70;2.33;;;;;;;11.25;75.69;98016.41;5033210;28;20092;-78
2023/12/31 10:17:07;;;;;;;4.63;2.75;;;;;;;11.26;74.24;98004.09;5033122;28;20116;-80
2023/12/31 10:19:34;;;;;;;5.13;2.43;;;;;;;11.30;75.88;97993.16;5019284;28;20048;-78
2023/12/31 10:22:04;;;;;;;3.92;2.35;;;;;;;11.31;74.86;97980.81;5032688;28;20296;-77
2023/12/31 10:24:31;;;;;;;2.85;2.33;;;;;;;11.36;76.17;97972.50;5032588;28;20049;-78
2023/12/31 10:27:02;;;;;;;6.75;2.13;;;;;;;11.37;75.05;97971.53;5014999;28;20053;-79
2023/12/31 10:29:28;;;;;;;3.55;2.10;;;;;;;11.40;76.32;97956.28;5017721;28;20096;-77
2023/12/31 10:31:55;;;;;;;2.80;2.20;;;;;;;11.46;76.23;97960.16;4995268;28;20129;-79
2023/12/31 10:34:22;;;;;;;2.55;2.20;;;;;;;11.49;76.16;97948.50;5012843;28;20100;-77
2023/12/31 10:36:49;;;;;;;3.00;2.05;;;;;;;11.53;76.00;97953.38;5012581;28;20517;-78
2023/12/31 10:39:29;;;;;;;3.70;2.30;;;;;;;11.53;73.78;97948.09;5021203;28;20486;-82
2023/12/31 10:42:00;;;;;;;3.05;2.15;;;;;;;11.59;75.46;97934.38;5014647;28;20072;-80
2023/12/31 10:44:27;;;;;;;3.35;2.10;;;;;;;11.63;75.83;97942.00;5014850;28;20060;-77
2023/12/31 10:47:00;;;;;;;3.88;2.53;;;;;;;11.64;74.89;97933.97;5032020;28;20410;-80
2023/12/31 10:49:29;;;;;;;3.22;2.50;;;;;;;11.69;75.68;97941.44;5023531;28;20053;-78
2023/12/31 10:51:59;;;;;;;3.58;2.47;;;;;;;11.71;75.93;97929.78;4994784;28;20073;-79
2023/12/31 10:54:51;;;;;;;2.83;2.38;;;;;;;11.71;73.18;97934.22;5012259;28;20078;-79
2023/12/31 10:57:21;;;;;;;2.45;2.22;;;;;;;11.78;75.34;97945.03;5008277;28;20047;-77
2023/12/31 10:59:48;;;;;;;2.38;2.08;;;;;;;11.79;75.71;97928.25;5001076;28;20072;-79
2023/12/31 11:02:16;;;;;;;3.63;2.35;;;;;;;11.82;75.81;97920.88;4994389;28;20053;-79
2023/12/31 11:04:45;;;;;;;3.42;2.58;;;;;;;11.84;75.48;97923.38;5012103;28;20062;-78
2023/12/31 11:07:16;;;;;;;3.10;2.17;;;;;;;11.86;74.32;97921.44;5012153;28;20053;-78
2023/12/31 11:09:46;;;;;;;2.45;2.25;;;;;;;11.92;75.73;97917.41;5016441;28;20068;-78
2023/12/31 11:12:14;;;;;;;4.00;2.33;;;;;;;11.94;75.27;97918.09;5031225;28;20136;-79
2023/12/31 11:14:47;;;;;;;3.88;2.58;;;;;;;11.97;74.25;97926.53;5031521;28;20081;-78
2023/12/31 11:17:29;;;;;;;3.63;2.42;;;;;;;12.00;73.34;97917.50;5031457;28;20053;-81
2023/12/31 11:23:50;;;;;;;3.50;2.50;;;;;;;12.08;72.72;97912.38;5107491;22;20067;-75
2023/12/31 11:26:17;;;;;;;4.35;2.65;;;;;;;12.12;73.90;97919.03;5050912;28;20098;-76
2023/12/31 11:28:48;;;;;;;3.70;2.47;;;;;;;12.11;73.39;97913.91;5050848;28;20049;-75
2023/12/31 11:31:16;;;;;;;3.30;2.42;;;;;;;12.12;74.54;97907.69;5049748;28;20167;-75
2023/12/31 11:33:45;;;;;;;3.72;2.47;;;;;;;12.11;73.55;97920.03;5033092;28;20509;-75
2023/12/31 11:36:13;;;;;;;3.70;2.33;;;;;;;12.12;74.07;97905.84;5051009;28;20049;-75
2023/12/31 11:39:00;;;;;;;2.85;2.45;;;;;;;12.05;67.08;97910.06;5051042;28;20111;-73
2023/12/31 11:41:39;;;;;;;4.82;2.40;;;;;;;12.11;71.18;97913.91;5050043;28;20048;-72
2023/12/31 11:44:05;;;;;;;3.38;2.50;;;;;;;12.14;73.22;97894.34;5032253;28;20049;-74